Time;durP1;ratioP1;P1;durP2;ratioP2;P2;SDS_P1;SDS_P2;PMS_P1;PMS_P2;Temp;Humidity;BMP_temperature;BMP_pressure;BME280_temperature;BME280_humidity;BME280_pressure;Samples;Min_cycle;Max_cycle;Signal;HPM_P1;HPM_P2
2022/12/21 00:01:16;;;;;;;10.30;5.70;;;;;;;;;;5156851;27;20587;-59
2022/12/21 00:03:42;;;;;;;11.00;4.47;;;;;;;;;;5144479;27;20031;-59
2022/12/21 00:06:09;;;;;;;10.75;4.88;;;;;;;;;;5144018;27;20055;-59
2022/12/21 00:08:36;;;;;;;10.35;4.28;;;;;;;;;;5145876;27;20424;-59
2022/12/21 00:11:04;;;;;;;10.05;4.57;;;;;;;;;;5143666;27;20518;-59
2022/12/21 00:13:31;;;;;;;9.57;5.28;;;;;;;;;;5143235;27;20039;-59
2022/12/21 00:15:58;;;;;;;8.35;5.70;;;;;;;;;;5142799;27;20034;-59
2022/12/21 00:18:24;;;;;;;9.65;5.90;;;;;;;;;;5143738;27;20477;-59
2022/12/21 00:21:01;;;;;;;12.57;5.40;;;;;;;;;;5142984;27;20050;-59
2022/12/21 00:23:27;;;;;;;8.73;5.38;;;;;;;;;;5141092;27;20511;-59
2022/12/21 00:25:53;;;;;;;11.13;4.95;;;;;;;;;;5144524;27;20045;-59
2022/12/21 00:28:19;;;;;;;10.25;4.78;;;;;;;;;;5142083;27;20090;-60
2022/12/21 00:30:45;;;;;;;14.00;5.65;;;;;;;;;;5142447;27;20055;-59
2022/12/21 00:33:11;;;;;;;8.63;6.07;;;;;;;;;;5145508;27;20039;-59
2022/12/21 00:35:37;;;;;;;12.85;4.82;;;;;;;;;;5143852;27;20334;-59
2022/12/21 00:38:03;;;;;;;9.82;5.45;;;;;;;;;;5140856;27;20142;-59
2022/12/21 00:40:29;;;;;;;12.18;5.38;;;;;;;;;;5142331;27;20535;-59
2022/12/21 00:42:55;;;;;;;11.50;5.50;;;;;;;;;;5138841;27;20046;-59
2022/12/21 00:45:22;;;;;;;9.77;5.45;;;;;;;;;;5142147;27;20050;-59
2022/12/21 00:47:48;;;;;;;9.70;4.95;;;;;;;;;;5138629;27;20801;-59
2022/12/21 00:50:14;;;;;;;10.57;4.30;;;;;;;;;;5142945;27;20574;-59
2022/12/21 00:52:40;;;;;;;8.27;4.38;;;;;;;;;;5143356;27;20039;-58
2022/12/21 00:55:07;;;;;;;9.93;5.55;;;;;;;;;;5142928;27;20526;-59
2022/12/21 00:57:33;;;;;;;11.23;5.57;;;;;;;;;;5141512;27;20074;-59
2022/12/21 00:59:59;;;;;;;7.85;4.35;;;;;;;;;;5143597;27;20127;-59
2022/12/21 01:02:25;;;;;;;9.43;4.05;;;;;;;;;;5139223;27;20126;-59
2022/12/21 01:04:51;;;;;;;6.78;3.22;;;;;;;;;;5144097;27;20157;-59
2022/12/21 01:07:17;;;;;;;6.55;3.72;;;;;;;;;;5141569;27;20513;-59
2022/12/21 01:09:43;;;;;;;5.47;3.25;;;;;;;;;;5144330;27;20099;-59
2022/12/21 01:12:09;;;;;;;5.45;2.90;;;;;;;;;;5142925;27;20070;-59
2022/12/21 01:14:35;;;;;;;5.13;2.53;;;;;;;;;;5144886;27;20038;-59
2022/12/21 01:17:01;;;;;;;3.47;2.22;;;;;;;;;;5141314;27;20039;-59
2022/12/21 01:19:27;;;;;;;4.47;2.20;;;;;;;;;;5141819;27;20047;-60
2022/12/21 01:21:53;;;;;;;3.67;2.20;;;;;;;;;;5142697;27;20050;-59
2022/12/21 01:24:20;;;;;;;3.05;2.00;;;;;;;;;;5143745;27;20043;-59
2022/12/21 01:26:46;;;;;;;3.65;2.50;;;;;;;;;;5143708;27;20453;-59
2022/12/21 01:29:13;;;;;;;2.42;1.77;;;;;;;;;;5141851;27;20096;-59
2022/12/21 01:31:39;;;;;;;3.03;1.63;;;;;;;;;;5141340;27;20536;-59
2022/12/21 01:34:06;;;;;;;2.90;1.92;;;;;;;;;;5142967;27;20046;-59
2022/12/21 01:36:32;;;;;;;7.35;2.28;;;;;;;;;;5141695;27;20540;-59
2022/12/21 01:38:58;;;;;;;3.30;1.95;;;;;;;;;;5143953;27;20914;-59
2022/12/21 01:41:25;;;;;;;3.17;1.70;;;;;;;;;;5140960;27;20049;-59
2022/12/21 01:43:52;;;;;;;5.22;2.83;;;;;;;;;;5143893;27;20092;-59
2022/12/21 01:46:22;;;;;;;2.97;1.88;;;;;;;;;;5140129;27;20451;-59
2022/12/21 01:48:59;;;;;;;5.30;2.03;;;;;;;;;;5138984;27;20107;-59
2022/12/21 01:51:26;;;;;;;5.05;1.92;;;;;;;;;;5137550;27;20079;-59
2022/12/21 01:53:57;;;;;;;2.40;1.52;;;;;;;;;;5139377;27;20039;-59
2022/12/21 01:56:25;;;;;;;2.37;1.30;;;;;;;;;;5144670;27;20528;-59
2022/12/21 01:58:51;;;;;;;2.90;1.60;;;;;;;;;;5142666;27;20276;-59
2022/12/21 02:01:17;;;;;;;2.45;1.50;;;;;;;;;;5144847;27;20079;-59
2022/12/21 02:03:46;;;;;;;3.97;1.45;;;;;;;;;;5145869;27;20047;-59
2022/12/21 02:06:18;;;;;;;3.42;1.80;;;;;;;;;;5146009;27;20050;-59
2022/12/21 02:08:44;;;;;;;3.97;1.77;;;;;;;;;;5146622;27;20050;-59
2022/12/21 02:11:11;;;;;;;6.32;1.85;;;;;;;;;;5148554;27;20046;-59
2022/12/21 02:13:37;;;;;;;5.03;2.38;;;;;;;;;;5145901;27;20049;-59
2022/12/21 02:16:13;;;;;;;2.00;1.30;;;;;;;;;;5146786;27;20574;-59
2022/12/21 02:18:50;;;;;;;4.35;1.50;;;;;;;;;;5146365;27;20400;-59
2022/12/21 02:21:29;;;;;;;3.65;1.50;;;;;;;;;;5145803;27;20039;-59
2022/12/21 02:23:58;;;;;;;3.05;1.65;;;;;;;;;;5146669;27;20035;-59
2022/12/21 02:26:30;;;;;;;2.20;1.40;;;;;;;;;;5146354;27;20031;-59
2022/12/21 02:29:04;;;;;;;3.63;2.28;;;;;;;;;;5145812;27;20046;-59
2022/12/21 02:31:42;;;;;;;2.83;1.67;;;;;;;;;;5144884;27;20072;-59
2022/12/21 02:34:18;;;;;;;3.92;1.75;;;;;;;;;;5147016;27;20056;-59
2022/12/21 02:36:50;;;;;;;3.13;1.55;;;;;;;;;;5145772;27;20042;-59
2022/12/21 02:39:16;;;;;;;;;;;;;;;;;;5146555;27;20043;-59
2022/12/21 02:41:44;;;;;;;2.42;1.42;;;;;;;;;;5146516;27;19919;-59
2022/12/21 02:44:17;;;;;;;2.08;1.58;;;;;;;;;;5146644;27;20085;-59
2022/12/21 02:47:03;;;;;;;3.53;1.70;;;;;;;;;;5143781;27;20035;-59
2022/12/21 02:49:48;;;;;;;3.47;1.50;;;;;;;;;;5146352;27;20043;-59
2022/12/21 02:52:33;;;;;;;3.20;1.33;;;;;;;;;;5138611;27;20038;-59
2022/12/21 02:55:00;;;;;;;2.85;2.25;;;;;;;;;;5140990;27;20069;-59
2022/12/21 02:57:37;;;;;;;4.97;1.83;;;;;;;;;;5139074;27;20044;-59
2022/12/21 03:00:06;;;;;;;4.30;2.03;;;;;;;;;;5137466;27;20077;-60
2022/12/21 03:02:38;;;;;;;2.88;1.65;;;;;;;;;;5136713;27;20539;-59
2022/12/21 03:05:04;;;;;;;;;;;;;;;;;;5141847;27;20055;-59
2022/12/21 03:07:42;;;;;;;3.72;1.75;;;;;;;;;;5137683;27;20408;-59
2022/12/21 03:10:14;;;;;;;2.45;1.60;;;;;;;;;;5139479;27;20073;-59
2022/12/21 03:12:40;;;;;;;;;;;;;;;;;;5137675;27;20605;-59
2022/12/21 03:15:20;;;;;;;5.80;2.08;;;;;;;;;;5136612;27;20016;-59
2022/12/21 03:18:04;;;;;;;4.38;2.30;;;;;;;;;;5139738;27;20047;-59
2022/12/21 03:20:40;;;;;;;4.13;2.55;;;;;;;;;;5140304;27;20868;-60
2022/12/21 03:23:12;;;;;;;4.10;2.35;;;;;;;;;;5137303;27;20627;-59
2022/12/21 03:25:38;;;;;;;;;;;;;;;;;;5141143;27;20219;-59
2022/12/21 03:28:07;;;;;;;6.20;2.80;;;;;;;;;;5141549;27;20039;-59
2022/12/21 03:30:37;;;;;;;4.63;2.65;;;;;;;;;;5136549;27;20395;-59
2022/12/21 03:33:06;;;;;;;4.50;2.40;;;;;;;;;;5138725;27;20074;-59
2022/12/21 03:35:35;;;;;;;4.38;2.53;;;;;;;;;;5140390;27;20034;-59
2022/12/21 03:38:03;;;;;;;5.05;2.90;;;;;;;;;;5138150;27;20058;-59
2022/12/21 03:40:32;;;;;;;5.53;3.05;;;;;;;;;;5126363;27;20087;-59
2022/12/21 03:43:00;;;;;;;8.50;2.83;;;;;;;;;;5135918;27;20045;-59
2022/12/21 03:45:32;;;;;;;5.15;3.28;;;;;;;;;;5144391;27;20500;-59
2022/12/21 03:47:58;;;;;;;;;;;;;;;;;;5144074;27;20046;-59
2022/12/21 03:50:28;;;;;;;6.95;3.13;;;;;;;;;;5144934;27;19968;-59
2022/12/21 03:53:03;;;;;;;5.43;3.00;;;;;;;;;;5145538;27;20114;-59
2022/12/21 03:55:31;;;;;;;7.35;2.75;;;;;;;;;;5145772;27;20529;-59
2022/12/21 03:57:57;;;;;;;4.55;2.53;;;;;;;;;;5143884;27;20054;-59
2022/12/21 04:00:23;;;;;;;5.22;2.83;;;;;;;;;;5144992;27;20057;-59
2022/12/21 04:02:57;;;;;;;6.85;3.67;;;;;;;;;;5141836;27;20664;-59
2022/12/21 04:05:30;;;;;;;5.88;2.90;;;;;;;;;;5143181;27;20043;-59
2022/12/21 04:07:56;;;;;;;5.28;3.25;;;;;;;;;;5143424;27;21514;-59
2022/12/21 04:10:23;;;;;;;5.25;3.17;;;;;;;;;;5160956;27;20126;-59
2022/12/21 04:12:49;;;;;;;3.85;2.67;;;;;;;;;;5143404;27;20039;-59
2022/12/21 04:15:17;;;;;;;4.93;2.90;;;;;;;;;;5145455;27;20045;-59
2022/12/21 04:17:44;;;;;;;4.47;2.90;;;;;;;;;;5141725;27;20047;-59
2022/12/21 04:20:14;;;;;;;7.25;3.35;;;;;;;;;;5144522;27;20046;-59
2022/12/21 04:28:21;;;;;;;6.47;2.95;;;;;;;;;;5143840;27;20039;-59
2022/12/21 04:30:47;;;;;;;6.07;4.25;;;;;;;;;;5141535;27;20047;-59
2022/12/21 04:33:15;;;;;;;5.85;3.45;;;;;;;;;;5143892;27;20027;-59
2022/12/21 04:37:30;;;;;;;4.43;2.45;;;;;;;;;;5145744;27;20547;-59
2022/12/21 04:38:28;;;;;;;4.53;2.70;;;;;;;;;;5144151;27;20141;-59
2022/12/21 04:40:54;;;;;;;4.80;2.95;;;;;;;;;;5143942;27;20050;-59
2022/12/21 04:43:21;;;;;;;6.22;3.22;;;;;;;;;;5141495;27;20039;-59
2022/12/21 04:45:47;;;;;;;5.45;3.20;;;;;;;;;;5139984;27;20172;-59
2022/12/21 04:48:14;;;;;;;11.48;4.35;;;;;;;;;;5144488;27;20069;-59
2022/12/21 04:50:40;;;;;;;9.82;3.38;;;;;;;;;;5144742;27;20038;-59
2022/12/21 04:53:07;;;;;;;6.55;4.47;;;;;;;;;;5144607;27;20090;-59
2022/12/21 04:55:33;;;;;;;9.13;3.65;;;;;;;;;;5141566;27;20031;-59
2022/12/21 04:57:59;;;;;;;5.60;3.47;;;;;;;;;;5143280;27;20041;-59
2022/12/21 05:00:25;;;;;;;6.50;3.80;;;;;;;;;;5142375;27;20121;-59
2022/12/21 05:02:51;;;;;;;7.97;3.83;;;;;;;;;;5143250;27;20046;-58
2022/12/21 05:05:17;;;;;;;7.32;4.03;;;;;;;;;;5139923;27;20039;-59
2022/12/21 05:07:43;;;;;;;7.82;3.58;;;;;;;;;;5139310;27;20559;-59
2022/12/21 05:10:09;;;;;;;7.38;3.38;;;;;;;;;;5143731;27;20070;-58
2022/12/21 05:12:35;;;;;;;10.95;4.07;;;;;;;;;;5140377;27;20150;-58
2022/12/21 05:15:01;;;;;;;6.15;3.65;;;;;;;;;;5140087;27;20047;-59
2022/12/21 05:17:28;;;;;;;7.43;3.45;;;;;;;;;;5142542;27;20074;-59
2022/12/21 05:19:54;;;;;;;6.32;2.75;;;;;;;;;;5145030;27;21616;-58
2022/12/21 05:22:20;;;;;;;5.75;3.13;;;;;;;;;;5142552;27;20038;-59
2022/12/21 05:24:46;;;;;;;6.20;3.65;;;;;;;;;;5144039;27;20104;-58
2022/12/21 05:27:13;;;;;;;8.68;3.17;;;;;;;;;;5142287;27;20047;-59
2022/12/21 05:29:39;;;;;;;4.90;3.10;;;;;;;;;;5157994;27;20911;-58
2022/12/21 05:32:05;;;;;;;5.90;3.00;;;;;;;;;;5145242;27;20054;-59
2022/12/21 05:34:31;;;;;;;6.88;2.78;;;;;;;;;;5145303;27;20038;-59
2022/12/21 05:36:58;;;;;;;5.78;2.42;;;;;;;;;;5145829;27;20231;-59
2022/12/21 05:39:24;;;;;;;12.02;3.55;;;;;;;;;;5146675;27;20611;-59
2022/12/21 05:41:50;;;;;;;7.20;4.05;;;;;;;;;;5146505;27;20542;-59
2022/12/21 05:44:16;;;;;;;4.75;3.00;;;;;;;;;;5147578;27;21312;-58
2022/12/21 05:46:42;;;;;;;5.75;3.05;;;;;;;;;;5141308;27;20111;-58
2022/12/21 05:49:08;;;;;;;10.25;3.70;;;;;;;;;;5147128;27;20050;-59
2022/12/21 05:51:35;;;;;;;8.65;3.45;;;;;;;;;;5145673;27;20107;-59
2022/12/21 05:54:01;;;;;;;8.23;3.35;;;;;;;;;;5148027;27;20145;-58
2022/12/21 05:56:27;;;;;;;10.55;3.83;;;;;;;;;;5145245;27;20035;-58
2022/12/21 05:58:53;;;;;;;7.05;4.40;;;;;;;;;;5146053;27;20031;-58
2022/12/21 06:01:19;;;;;;;8.70;3.97;;;;;;;;;;5138720;27;20374;-58
2022/12/21 06:03:45;;;;;;;5.90;4.30;;;;;;;;;;5137626;27;20039;-58
2022/12/21 06:06:15;;;;;;;9.50;3.17;;;;;;;;;;5146212;27;20532;-58
2022/12/21 06:08:41;;;;;;;11.70;3.92;;;;;;;;;;5147313;27;20919;-59
2022/12/21 06:11:09;;;;;;;7.60;3.50;;;;;;;;;;5145179;27;20043;-58
2022/12/21 06:13:35;;;;;;;9.55;3.60;;;;;;;;;;5144671;27;20516;-59
2022/12/21 06:16:06;;;;;;;11.23;3.40;;;;;;;;;;5144361;27;20521;-59
2022/12/21 06:18:32;;;;;;;6.65;3.80;;;;;;;;;;5146934;27;20152;-59
2022/12/21 06:20:58;;;;;;;8.00;3.63;;;;;;;;;;5144837;27;20096;-59
2022/12/21 06:23:24;;;;;;;8.10;3.40;;;;;;;;;;5137662;27;20046;-59
2022/12/21 06:25:54;;;;;;;12.25;3.45;;;;;;;;;;5139749;27;21439;-59
2022/12/21 06:28:20;;;;;;;7.80;3.75;;;;;;;;;;5142504;27;20067;-59
2022/12/21 06:30:46;;;;;;;8.20;4.30;;;;;;;;;;5134948;27;20490;-58
2022/12/21 06:33:13;;;;;;;9.48;3.30;;;;;;;;;;5135994;27;20600;-59
2022/12/21 06:35:39;;;;;;;7.40;3.65;;;;;;;;;;5150540;27;20084;-59
2022/12/21 06:38:05;;;;;;;8.85;3.42;;;;;;;;;;5138609;27;20551;-58
2022/12/21 06:40:31;;;;;;;8.88;3.22;;;;;;;;;;5140396;27;20590;-59
2022/12/21 06:42:57;;;;;;;7.72;3.05;;;;;;;;;;5142012;27;20098;-59
2022/12/21 06:45:23;;;;;;;5.30;2.78;;;;;;;;;;5143818;27;20658;-59
2022/12/21 06:47:52;;;;;;;8.52;3.17;;;;;;;;;;5144849;27;20588;-59
2022/12/21 06:50:18;;;;;;;8.57;3.65;;;;;;;;;;5146019;27;20165;-59
2022/12/21 06:52:44;;;;;;;14.32;4.15;;;;;;;;;;5144686;27;20150;-59
2022/12/21 06:55:10;;;;;;;11.75;3.60;;;;;;;;;;5159983;27;20123;-59
2022/12/21 06:57:36;;;;;;;6.55;4.32;;;;;;;;;;5145996;27;20070;-58
2022/12/21 07:00:03;;;;;;;11.02;4.82;;;;;;;;;;5144410;27;20039;-59
2022/12/21 07:02:29;;;;;;;10.00;4.00;;;;;;;;;;5145439;27;20054;-59
2022/12/21 07:04:55;;;;;;;6.57;3.55;;;;;;;;;;5143420;27;20043;-58
2022/12/21 07:07:21;;;;;;;12.45;4.28;;;;;;;;;;5146189;27;20055;-59
2022/12/21 07:09:47;;;;;;;7.70;3.90;;;;;;;;;;5143496;27;20038;-60
2022/12/21 07:12:13;;;;;;;9.35;4.03;;;;;;;;;;5142297;27;20605;-60
2022/12/21 07:14:39;;;;;;;14.15;3.88;;;;;;;;;;5144682;27;20898;-59
2022/12/21 07:17:05;;;;;;;8.48;4.05;;;;;;;;;;5145346;27;20039;-60
2022/12/21 07:19:31;;;;;;;11.57;4.38;;;;;;;;;;5146173;27;20622;-59
2022/12/21 07:21:57;;;;;;;6.40;3.60;;;;;;;;;;5145935;27;20078;-59
2022/12/21 07:24:24;;;;;;;7.97;3.33;;;;;;;;;;5142484;27;20549;-60
2022/12/21 07:26:50;;;;;;;7.00;3.38;;;;;;;;;;5143262;27;20072;-60
2022/12/21 07:29:16;;;;;;;11.70;4.43;;;;;;;;;;5140358;27;20041;-59
2022/12/21 07:31:42;;;;;;;5.90;3.45;;;;;;;;;;5138884;27;20039;-59
2022/12/21 07:34:08;;;;;;;7.45;3.92;;;;;;;;;;5134743;27;20589;-59
2022/12/21 07:36:34;;;;;;;7.45;3.95;;;;;;;;;;5133305;27;20475;-60
2022/12/21 07:39:01;;;;;;;10.63;3.85;;;;;;;;;;5134455;27;20055;-59
2022/12/21 07:41:27;;;;;;;8.38;4.13;;;;;;;;;;5138660;27;20067;-59
2022/12/21 07:43:53;;;;;;;7.63;3.80;;;;;;;;;;5138948;27;21922;-59
2022/12/21 07:46:19;;;;;;;9.55;3.85;;;;;;;;;;5137727;27;20144;-59
2022/12/21 07:48:45;;;;;;;8.23;3.65;;;;;;;;;;5139689;27;20157;-59
2022/12/21 07:51:12;;;;;;;12.02;5.05;;;;;;;;;;5142273;27;20039;-59
2022/12/21 07:53:38;;;;;;;8.38;3.58;;;;;;;;;;5160020;27;20041;-59
2022/12/21 07:56:06;;;;;;;13.27;3.60;;;;;;;;;;5144721;27;20042;-59
2022/12/21 07:58:33;;;;;;;8.93;4.70;;;;;;;;;;5142829;27;20040;-59
2022/12/21 08:01:09;;;;;;;6.70;3.70;;;;;;;;;;5142751;27;20093;-59
2022/12/21 08:03:35;;;;;;;8.23;4.45;;;;;;;;;;5143892;27;20081;-59
2022/12/21 08:06:02;;;;;;;12.65;5.10;;;;;;;;;;5145187;27;20059;-58
2022/12/21 08:08:28;;;;;;;10.80;5.22;;;;;;;;;;5144386;27;21727;-59
2022/12/21 08:10:54;;;;;;;8.02;4.43;;;;;;;;;;5145945;27;20064;-60
2022/12/21 08:13:21;;;;;;;8.35;3.25;;;;;;;;;;5143440;27;20096;-60
2022/12/21 08:15:47;;;;;;;6.60;4.70;;;;;;;;;;5141963;27;20100;-60
2022/12/21 08:18:13;;;;;;;12.75;5.35;;;;;;;;;;5128702;27;20466;-60
2022/12/21 08:20:43;;;;;;;12.15;4.85;;;;;;;;;;5145439;27;20060;-61
2022/12/21 08:23:09;;;;;;;11.80;4.72;;;;;;;;;;5144770;27;20042;-60
2022/12/21 08:25:35;;;;;;;9.82;4.65;;;;;;;;;;5141478;27;20039;-60
2022/12/21 08:28:01;;;;;;;10.23;3.15;;;;;;;;;;5146486;27;20523;-60
2022/12/21 08:30:27;;;;;;;9.88;4.10;;;;;;;;;;5143675;27;20636;-60
2022/12/21 08:32:53;;;;;;;6.85;3.70;;;;;;;;;;5141196;27;20039;-60
2022/12/21 08:35:20;;;;;;;7.70;4.30;;;;;;;;;;5152393;27;20142;-60
2022/12/21 08:37:46;;;;;;;11.63;5.80;;;;;;;;;;5140833;27;20035;-61
2022/12/21 08:40:12;;;;;;;12.95;4.35;;;;;;;;;;5143205;27;20548;-60
2022/12/21 08:42:38;;;;;;;13.52;4.47;;;;;;;;;;5140305;27;20412;-60
2022/12/21 08:45:04;;;;;;;10.13;4.57;;;;;;;;;;5141441;27;20519;-60
2022/12/21 08:47:30;;;;;;;8.40;4.55;;;;;;;;;;5133953;27;20051;-60
2022/12/21 08:49:56;;;;;;;10.35;3.58;;;;;;;;;;5137826;27;20041;-61
2022/12/21 08:52:22;;;;;;;11.73;4.10;;;;;;;;;;5136622;27;20038;-60
2022/12/21 08:54:48;;;;;;;10.73;4.30;;;;;;;;;;5137205;27;20550;-60
2022/12/21 08:57:14;;;;;;;11.45;4.88;;;;;;;;;;5139040;27;20042;-60
2022/12/21 08:59:41;;;;;;;7.72;4.38;;;;;;;;;;5141076;27;20043;-60
2022/12/21 09:02:10;;;;;;;10.32;3.70;;;;;;;;;;5133405;27;20501;-60
2022/12/21 09:04:36;;;;;;;9.60;4.65;;;;;;;;;;5131902;27;20065;-60
2022/12/21 09:07:02;;;;;;;7.80;3.95;;;;;;;;;;5143460;27;20058;-60
2022/12/21 09:09:29;;;;;;;6.53;3.95;;;;;;;;;;5137104;27;20672;-60
2022/12/21 09:11:55;;;;;;;11.95;3.63;;;;;;;;;;5141380;27;20637;-60
2022/12/21 09:14:22;;;;;;;7.03;3.35;;;;;;;;;;5141987;27;20096;-60
2022/12/21 09:16:48;;;;;;;10.10;4.65;;;;;;;;;;5140226;27;20054;-60
2022/12/21 09:19:14;;;;;;;8.10;4.68;;;;;;;;;;5138731;27;20035;-60
2022/12/21 09:21:40;;;;;;;10.73;4.32;;;;;;;;;;5141699;27;20035;-60
2022/12/21 09:24:06;;;;;;;13.27;5.70;;;;;;;;;;5146112;27;21093;-61
2022/12/21 09:26:32;;;;;;;16.65;4.38;;;;;;;;;;5141859;27;20051;-60
2022/12/21 09:28:58;;;;;;;9.30;5.30;;;;;;;;;;5144426;27;20054;-60
2022/12/21 09:31:25;;;;;;;10.88;5.32;;;;;;;;;;5145292;27;20416;-60
2022/12/21 09:33:51;;;;;;;15.20;6.93;;;;;;;;;;5148081;27;20208;-60
2022/12/21 09:36:19;;;;;;;11.30;6.03;;;;;;;;;;5147463;27;20038;-60
2022/12/21 09:38:45;;;;;;;16.42;6.15;;;;;;;;;;5146085;27;20054;-60
2022/12/21 09:41:33;;;;;;;10.25;6.03;;;;;;;;;;5147121;27;20105;-60
2022/12/21 09:44:05;;;;;;;24.17;7.70;;;;;;;;;;5147183;27;20031;-61
2022/12/21 09:46:31;;;;;;;;;;;;;;;;;;5148277;27;20443;-60
2022/12/21 09:49:04;;;;;;;19.77;6.30;;;;;;;;;;5146236;27;19926;-60
2022/12/21 09:51:32;;;;;;;17.25;7.95;;;;;;;;;;5140874;27;20046;-61
2022/12/21 09:54:01;;;;;;;12.60;5.57;;;;;;;;;;5143882;27;20047;-60
2022/12/21 09:56:28;;;;;;;14.18;6.47;;;;;;;;;;5142756;27;20112;-60
2022/12/21 09:58:55;;;;;;;13.15;6.68;;;;;;;;;;5146553;27;20299;-60
2022/12/21 10:01:32;;;;;;;22.45;6.55;;;;;;;;;;5141099;27;20646;-60
2022/12/21 10:04:10;;;;;;;11.93;6.00;;;;;;;;;;5143149;27;20039;-60
2022/12/21 10:06:52;;;;;;;13.75;6.75;;;;;;;;;;5141438;27;20080;-60
2022/12/21 10:09:18;;;;;;;14.23;6.95;;;;;;;;;;5142564;27;20036;-60
2022/12/21 10:11:47;;;;;;;13.55;5.93;;;;;;;;;;5138396;27;20457;-59
2022/12/21 10:14:18;;;;;;;13.25;7.75;;;;;;;;;;5141785;27;20592;-61
2022/12/21 10:16:54;;;;;;;11.40;5.90;;;;;;;;;;5137924;27;20119;-62
2022/12/21 10:19:43;;;;;;;9.95;5.05;;;;;;;;;;5142018;27;20588;-61
2022/12/21 10:22:14;;;;;;;16.13;5.97;;;;;;;;;;5108001;27;20055;-61
2022/12/21 10:24:46;;;;;;;8.48;4.40;;;;;;;;;;5143060;27;20097;-61
2022/12/21 10:27:35;;;;;;;10.65;5.85;;;;;;;;;;5143095;27;20043;-60
2022/12/21 10:30:01;;;;;;;6.03;4.47;;;;;;;;;;5134935;27;20047;-60
2022/12/21 10:32:35;;;;;;;7.78;4.38;;;;;;;;;;5141385;27;20602;-60
2022/12/21 10:35:14;;;;;;;7.72;4.03;;;;;;;;;;5140313;27;20039;-61
2022/12/21 10:37:41;;;;;;;6.75;4.03;;;;;;;;;;5143322;27;20039;-61
2022/12/21 10:40:07;;;;;;;9.93;3.60;;;;;;;;;;5141014;27;20039;-60
2022/12/21 10:42:38;;;;;;;7.53;3.13;;;;;;;;;;5143397;27;20499;-60
2022/12/21 10:45:04;;;;;;;10.38;3.33;;;;;;;;;;5142589;27;20550;-61
2022/12/21 10:47:30;;;;;;;6.07;2.85;;;;;;;;;;5138985;27;20046;-61
2022/12/21 10:50:03;;;;;;;7.20;2.70;;;;;;;;;;5142294;27;20043;-60
2022/12/21 10:52:33;;;;;;;6.82;4.53;;;;;;;;;;5141509;27;20046;-60
2022/12/21 10:54:59;;;;;;;7.28;3.05;;;;;;;;;;5142391;27;21004;-60
2022/12/21 10:57:26;;;;;;;5.25;3.15;;;;;;;;;;5141414;27;20035;-60
2022/12/21 10:59:52;;;;;;;10.68;4.30;;;;;;;;;;5139982;27;20107;-60
2022/12/21 11:02:33;;;;;;;4.97;2.78;;;;;;;;;;5143001;27;20042;-60
2022/12/21 11:04:59;;;;;;;6.03;2.83;;;;;;;;;;5127125;27;21686;-60
2022/12/21 11:07:26;;;;;;;6.32;2.08;;;;;;;;;;5142657;27;21931;-60
2022/12/21 11:09:56;;;;;;;6.63;2.58;;;;;;;;;;5139538;27;20043;-60
2022/12/21 11:12:23;;;;;;;6.32;2.25;;;;;;;;;;5143378;27;20092;-60
2022/12/21 11:14:50;;;;;;;7.20;2.50;;;;;;;;;;5140797;27;20035;-60
2022/12/21 11:17:28;;;;;;;5.25;2.17;;;;;;;;;;5142643;27;20047;-60
2022/12/21 11:20:01;;;;;;;7.43;2.95;;;;;;;;;;5143283;27;20117;-60
2022/12/21 11:22:28;;;;;;;7.63;3.10;;;;;;;;;;5143784;27;20065;-60
2022/12/21 11:24:56;;;;;;;4.05;2.15;;;;;;;;;;5136624;27;20090;-60
2022/12/21 11:27:24;;;;;;;5.90;2.47;;;;;;;;;;5136277;27;20043;-60
2022/12/21 11:29:59;;;;;;;7.60;3.00;;;;;;;;;;5137696;27;20039;-60
2022/12/21 11:32:25;;;;;;;6.75;2.50;;;;;;;;;;5142800;27;20081;-60
2022/12/21 11:34:59;;;;;;;4.80;2.28;;;;;;;;;;5136514;27;20043;-60
2022/12/21 11:37:37;;;;;;;4.18;2.67;;;;;;;;;;5143961;27;20528;-60
2022/12/21 11:40:13;;;;;;;5.90;2.38;;;;;;;;;;5138865;27;20543;-60
2022/12/21 11:42:58;;;;;;;6.15;2.63;;;;;;;;;;5136213;27;20504;-60
2022/12/21 11:45:25;;;;;;;4.25;2.38;;;;;;;;;;5138075;27;20040;-60
2022/12/21 11:47:51;;;;;;;5.35;2.67;;;;;;;;;;5140430;27;20039;-61
2022/12/21 11:50:20;;;;;;;3.72;2.20;;;;;;;;;;5139198;27;20047;-60
2022/12/21 11:52:49;;;;;;;3.85;2.30;;;;;;;;;;5140188;27;20069;-60
2022/12/21 11:55:21;;;;;;;5.93;2.25;;;;;;;;;;5143268;27;20144;-60
2022/12/21 11:57:47;;;;;;;;;;;;;;;;;;5142050;27;20046;-60
2022/12/21 12:00:24;;;;;;;11.85;3.40;;;;;;;;;;5139597;27;19923;-60
2022/12/21 12:02:53;;;;;;;7.22;2.60;;;;;;;;;;5138767;27;20042;-59
2022/12/21 12:05:33;;;;;;;4.13;2.03;;;;;;;;;;5141164;27;20568;-60
2022/12/21 12:08:17;;;;;;;6.75;3.08;;;;;;;;;;5141091;27;20043;-60
2022/12/21 12:10:46;;;;;;;4.03;2.10;;;;;;;;;;5141008;27;20143;-60
2022/12/21 12:13:20;;;;;;;6.03;2.90;;;;;;;;;;5138277;27;20043;-60
2022/12/21 12:15:51;;;;;;;4.70;2.17;;;;;;;;;;5141029;27;20134;-60
2022/12/21 12:18:36;;;;;;;6.57;2.10;;;;;;;;;;5139917;27;20047;-60
2022/12/21 12:21:02;;;;;;;2.67;1.75;;;;;;;;;;5137938;27;20130;-60
2022/12/21 12:23:28;;;;;;;4.35;1.77;;;;;;;;;;5133480;27;20081;-60
2022/12/21 12:25:59;;;;;;;3.17;2.00;;;;;;;;;;5139839;27;20516;-60
2022/12/21 12:28:29;;;;;;;3.92;1.73;;;;;;;;;;5142149;27;20161;-60
2022/12/21 12:33:52;;;;;;;3.15;1.80;;;;;;;;;;5131142;27;20048;-60
2022/12/21 12:36:31;;;;;;;3.83;1.90;;;;;;;;;;5123993;27;20050;-60
2022/12/21 12:39:13;;;;;;;3.35;1.85;;;;;;;;;;5141871;27;21212;-60
2022/12/21 12:41:45;;;;;;;2.90;2.17;;;;;;;;;;5140059;27;20050;-60
2022/12/21 12:44:19;;;;;;;3.83;2.15;;;;;;;;;;5143830;27;20047;-62
2022/12/21 12:46:51;;;;;;;4.00;2.15;;;;;;;;;;5144292;27;20039;-61
2022/12/21 12:49:17;;;;;;;;;;;;;;;;;;5145437;27;21190;-60
2022/12/21 12:51:52;;;;;;;7.70;2.63;;;;;;;;;;5144172;27;19978;-61
2022/12/21 12:54:34;;;;;;;2.95;1.52;;;;;;;;;;5145110;27;20046;-61
2022/12/21 12:57:13;;;;;;;3.30;2.13;;;;;;;;;;5143037;27;20043;-61
2022/12/21 12:59:39;;;;;;;4.88;2.30;;;;;;;;;;5144357;27;20052;-61
2022/12/21 13:02:11;;;;;;;5.65;3.35;;;;;;;;;;5144558;27;20034;-61
2022/12/21 13:04:55;;;;;;;3.10;1.50;;;;;;;;;;5145679;27;20075;-61
2022/12/21 13:07:41;;;;;;;4.72;1.60;;;;;;;;;;5143938;27;20051;-61
2022/12/21 13:10:22;;;;;;;5.30;2.00;;;;;;;;;;5145420;27;20034;-60
2022/12/21 13:12:55;;;;;;;4.63;1.50;;;;;;;;;;5144480;27;20164;-60
2022/12/21 13:15:30;;;;;;;4.53;1.65;;;;;;;;;;5143738;27;20043;-61
2022/12/21 13:18:02;;;;;;;2.30;1.48;;;;;;;;;;5144738;27;20031;-60
2022/12/21 13:20:29;;;;;;;2.17;1.05;;;;;;;;;;5145077;27;20035;-60
2022/12/21 13:23:14;;;;;;;3.67;1.52;;;;;;;;;;5145873;27;20031;-60
2022/12/21 13:25:46;;;;;;;4.00;1.67;;;;;;;;;;5143594;27;20047;-60
2022/12/21 13:28:21;;;;;;;2.15;1.23;;;;;;;;;;5144115;27;20208;-60
2022/12/21 13:30:48;;;;;;;4.00;1.52;;;;;;;;;;5141771;27;20039;-60
2022/12/21 13:33:16;;;;;;;2.85;1.35;;;;;;;;;;5143525;27;20034;-60
2022/12/21 13:36:12;;;;;;;3.60;1.67;;;;;;;;;;5143602;27;20050;-60
2022/12/21 13:38:43;;;;;;;2.83;1.67;;;;;;;;;;5131293;27;20150;-60
2022/12/21 13:41:10;;;;;;;4.78;2.08;;;;;;;;;;5145065;27;20043;-60
2022/12/21 13:43:38;;;;;;;4.03;2.10;;;;;;;;;;5143796;27;20540;-60
2022/12/21 13:46:06;;;;;;;1.95;1.40;;;;;;;;;;5146061;27;20051;-60
2022/12/21 13:48:34;;;;;;;2.80;1.73;;;;;;;;;;5141833;27;20043;-60
2022/12/21 13:51:18;;;;;;;3.67;1.52;;;;;;;;;;5140511;27;20551;-61
2022/12/21 13:54:03;;;;;;;2.53;1.60;;;;;;;;;;5143324;27;20034;-61
2022/12/21 13:56:29;;;;;;;3.20;1.40;;;;;;;;;;5135669;27;20147;-60
2022/12/21 13:59:00;;;;;;;2.47;1.60;;;;;;;;;;5143591;27;20461;-60
2022/12/21 14:01:45;;;;;;;4.82;1.98;;;;;;;;;;5146444;27;20636;-60
2022/12/21 14:04:44;;;;;;;5.25;1.92;;;;;;;;;;5147544;27;20885;-60
2022/12/21 14:07:29;;;;;;;6.53;2.20;;;;;;;;;;5112320;27;20081;-60
2022/12/21 14:10:03;;;;;;;4.72;2.70;;;;;;;;;;5147174;27;20489;-60
2022/12/21 14:12:38;;;;;;;9.68;2.65;;;;;;;;;;5145296;27;20039;-60
2022/12/21 14:15:23;;;;;;;4.32;2.47;;;;;;;;;;5145393;27;20031;-60
2022/12/21 14:17:50;;;;;;;3.90;2.55;;;;;;;;;;5147933;27;20038;-60
2022/12/21 14:20:30;;;;;;;5.40;1.77;;;;;;;;;;5147476;27;20046;-62
2022/12/21 14:22:58;;;;;;;3.75;1.58;;;;;;;;;;5145272;27;20118;-60
2022/12/21 14:25:34;;;;;;;4.65;1.60;;;;;;;;;;5147356;27;20085;-61
2022/12/21 14:28:19;;;;;;;4.70;1.90;;;;;;;;;;5146647;27;20530;-60
2022/12/21 14:30:57;;;;;;;7.32;2.42;;;;;;;;;;5145054;27;20058;-61
2022/12/21 14:33:30;;;;;;;3.85;2.30;;;;;;;;;;5147235;27;20529;-60
2022/12/21 14:36:15;;;;;;;4.72;1.83;;;;;;;;;;5144791;27;20092;-60
2022/12/21 14:38:41;;;;;;;4.05;2.05;;;;;;;;;;5147493;27;20035;-60
2022/12/21 14:41:10;;;;;;;3.70;1.30;;;;;;;;;;5146872;27;20047;-60
2022/12/21 14:43:55;;;;;;;4.03;1.73;;;;;;;;;;5146932;27;20039;-60
2022/12/21 14:46:26;;;;;;;2.42;1.38;;;;;;;;;;5146143;27;20038;-60
2022/12/21 14:49:03;;;;;;;4.13;1.83;;;;;;;;;;5146060;27;20599;-60
2022/12/21 14:51:33;;;;;;;3.33;1.85;;;;;;;;;;5140871;27;20617;-62
2022/12/21 14:54:01;;;;;;;3.20;1.90;;;;;;;;;;5144997;27;20569;-60
2022/12/21 14:56:27;;;;;;;4.82;2.20;;;;;;;;;;5137638;27;20292;-61
2022/12/21 14:59:00;;;;;;;4.55;2.15;;;;;;;;;;5141757;27;20043;-60
2022/12/21 15:01:34;;;;;;;6.40;2.10;;;;;;;;;;5139382;27;20047;-59
2022/12/21 15:04:02;;;;;;;6.68;2.28;;;;;;;;;;5135907;27;20053;-59
2022/12/21 15:06:36;;;;;;;2.53;1.58;;;;;;;;;;5140308;27;20055;-59